sensor_id;sensor_type;location;lat;lon;timestamp;temperature;humidity
26803;DHT22;14378;51.796;5.808;2022-07-04T00:03:13;15.20;99.90
26803;DHT22;14378;51.796;5.808;2022-07-04T00:05:14;15.10;99.90
26803;DHT22;14378;51.796;5.808;2022-07-04T00:07:15;15.00;99.90
26803;DHT22;14378;51.796;5.808;2022-07-04T00:09:17;15.00;99.90
26803;DHT22;14378;51.796;5.808;2022-07-04T00:11:18;15.00;99.90
26803;DHT22;14378;51.796;5.808;2022-07-04T00:13:19;15.00;99.90
26803;DHT22;14378;51.796;5.808;2022-07-04T00:15:20;14.90;99.90
26803;DHT22;14378;51.796;5.808;2022-07-04T00:17:21;14.90;99.90
26803;DHT22;14378;51.796;5.808;2022-07-04T00:19:23;14.90;99.90
26803;DHT22;14378;51.796;5.808;2022-07-04T00:21:24;14.80;99.90
26803;DHT22;14378;51.796;5.808;2022-07-04T00:23:28;14.80;99.90
26803;DHT22;14378;51.796;5.808;2022-07-04T00:25:29;14.80;99.90
26803;DHT22;14378;51.796;5.808;2022-07-04T00:27:30;14.70;99.90
26803;DHT22;14378;51.796;5.808;2022-07-04T00:29:32;14.70;99.90
26803;DHT22;14378;51.796;5.808;2022-07-04T00:31:33;14.70;99.90
26803;DHT22;14378;51.796;5.808;2022-07-04T00:33:34;14.60;99.90
26803;DHT22;14378;51.796;5.808;2022-07-04T00:35:35;14.60;99.90
26803;DHT22;14378;51.796;5.808;2022-07-04T00:37:36;14.60;99.90
26803;DHT22;14378;51.796;5.808;2022-07-04T00:39:38;14.60;99.90
26803;DHT22;14378;51.796;5.808;2022-07-04T00:41:39;14.50;99.90
26803;DHT22;14378;51.796;5.808;2022-07-04T00:43:41;14.50;99.90
26803;DHT22;14378;51.796;5.808;2022-07-04T00:45:42;14.50;99.90
26803;DHT22;14378;51.796;5.808;2022-07-04T00:47:43;14.50;99.90
26803;DHT22;14378;51.796;5.808;2022-07-04T00:49:44;14.40;99.90
26803;DHT22;14378;51.796;5.808;2022-07-04T00:51:45;14.40;99.90
26803;DHT22;14378;51.796;5.808;2022-07-04T00:53:47;14.30;99.90
26803;DHT22;14378;51.796;5.808;2022-07-04T00:55:50;14.30;99.90
26803;DHT22;14378;51.796;5.808;2022-07-04T00:57:55;14.30;99.90
26803;DHT22;14378;51.796;5.808;2022-07-04T00:59:56;14.20;99.90
26803;DHT22;14378;51.796;5.808;2022-07-04T01:01:57;14.20;99.90
26803;DHT22;14378;51.796;5.808;2022-07-04T01:03:59;14.20;99.90
26803;DHT22;14378;51.796;5.808;2022-07-04T01:06:03;14.20;99.90
26803;DHT22;14378;51.796;5.808;2022-07-04T01:08:04;14.10;99.90
26803;DHT22;14378;51.796;5.808;2022-07-04T01:10:06;14.10;99.90
26803;DHT22;14378;51.796;5.808;2022-07-04T01:12:09;14.10;99.90
26803;DHT22;14378;51.796;5.808;2022-07-04T01:14:10;14.00;99.90
26803;DHT22;14378;51.796;5.808;2022-07-04T01:16:13;14.00;99.90
26803;DHT22;14378;51.796;5.808;2022-07-04T01:18:14;14.00;99.90
26803;DHT22;14378;51.796;5.808;2022-07-04T01:20:16;14.00;99.90
26803;DHT22;14378;51.796;5.808;2022-07-04T01:22:18;13.90;99.90
26803;DHT22;14378;51.796;5.808;2022-07-04T01:24:25;13.90;99.90
26803;DHT22;14378;51.796;5.808;2022-07-04T01:26:28;13.90;99.90
26803;DHT22;14378;51.796;5.808;2022-07-04T01:28:29;13.90;99.90
26803;DHT22;14378;51.796;5.808;2022-07-04T01:30:30;13.90;99.90
26803;DHT22;14378;51.796;5.808;2022-07-04T01:32:32;13.90;99.90
26803;DHT22;14378;51.796;5.808;2022-07-04T01:34:33;13.90;99.90
26803;DHT22;14378;51.796;5.808;2022-07-04T01:36:34;13.80;99.90
26803;DHT22;14378;51.796;5.808;2022-07-04T01:38:35;13.80;99.90
26803;DHT22;14378;51.796;5.808;2022-07-04T01:40:39;13.80;99.90
26803;DHT22;14378;51.796;5.808;2022-07-04T01:42:41;13.70;99.90
26803;DHT22;14378;51.796;5.808;2022-07-04T01:44:42;13.70;99.90
26803;DHT22;14378;51.796;5.808;2022-07-04T01:46:43;13.70;99.90
26803;DHT22;14378;51.796;5.808;2022-07-04T01:48:44;13.70;99.90
26803;DHT22;14378;51.796;5.808;2022-07-04T01:50:45;13.70;99.90
26803;DHT22;14378;51.796;5.808;2022-07-04T01:52:48;13.60;99.90
26803;DHT22;14378;51.796;5.808;2022-07-04T01:54:50;13.60;99.90
26803;DHT22;14378;51.796;5.808;2022-07-04T01:56:51;13.60;99.90
26803;DHT22;14378;51.796;5.808;2022-07-04T01:58:53;13.50;99.90
26803;DHT22;14378;51.796;5.808;2022-07-04T02:00:55;13.50;99.90
26803;DHT22;14378;51.796;5.808;2022-07-04T02:03:05;13.50;99.90
26803;DHT22;14378;51.796;5.808;2022-07-04T02:05:07;13.50;99.90
26803;DHT22;14378;51.796;5.808;2022-07-04T02:07:08;13.50;99.90
26803;DHT22;14378;51.796;5.808;2022-07-04T02:09:09;13.50;99.90
26803;DHT22;14378;51.796;5.808;2022-07-04T02:11:16;13.50;99.90
26803;DHT22;14378;51.796;5.808;2022-07-04T02:13:17;13.50;99.90
26803;DHT22;14378;51.796;5.808;2022-07-04T02:15:18;13.50;99.90
26803;DHT22;14378;51.796;5.808;2022-07-04T02:17:20;13.50;99.90
26803;DHT22;14378;51.796;5.808;2022-07-04T02:19:22;13.50;99.90
26803;DHT22;14378;51.796;5.808;2022-07-04T02:21:25;13.50;99.90
26803;DHT22;14378;51.796;5.808;2022-07-04T02:23:26;13.50;99.90
26803;DHT22;14378;51.796;5.808;2022-07-04T02:25:27;13.50;99.90
26803;DHT22;14378;51.796;5.808;2022-07-04T02:27:28;13.50;99.90
26803;DHT22;14378;51.796;5.808;2022-07-04T02:29:30;13.40;99.90
26803;DHT22;14378;51.796;5.808;2022-07-04T02:31:30;13.40;99.90
26803;DHT22;14378;51.796;5.808;2022-07-04T02:33:32;13.40;99.90
26803;DHT22;14378;51.796;5.808;2022-07-04T02:35:33;13.40;99.90
26803;DHT22;14378;51.796;5.808;2022-07-04T02:37:34;13.40;99.90
26803;DHT22;14378;51.796;5.808;2022-07-04T02:39:35;13.30;99.90
26803;DHT22;14378;51.796;5.808;2022-07-04T02:41:36;13.30;99.90
26803;DHT22;14378;51.796;5.808;2022-07-04T02:43:37;13.30;99.90
26803;DHT22;14378;51.796;5.808;2022-07-04T02:45:39;13.30;99.90
26803;DHT22;14378;51.796;5.808;2022-07-04T02:47:40;13.30;99.90
26803;DHT22;14378;51.796;5.808;2022-07-04T02:49:41;13.30;99.90
26803;DHT22;14378;51.796;5.808;2022-07-04T02:51:41;13.20;99.90
26803;DHT22;14378;51.796;5.808;2022-07-04T02:53:43;13.20;99.90
26803;DHT22;14378;51.796;5.808;2022-07-04T02:55:44;13.20;99.90
26803;DHT22;14378;51.796;5.808;2022-07-04T02:57:44;13.20;99.90
26803;DHT22;14378;51.796;5.808;2022-07-04T02:59:48;13.20;99.90
26803;DHT22;14378;51.796;5.808;2022-07-04T03:01:49;13.20;99.90
26803;DHT22;14378;51.796;5.808;2022-07-04T03:03:51;13.20;99.90
26803;DHT22;14378;51.796;5.808;2022-07-04T03:05:56;13.30;99.90
26803;DHT22;14378;51.796;5.808;2022-07-04T03:07:57;13.20;99.90
26803;DHT22;14378;51.796;5.808;2022-07-04T03:09:58;13.20;99.90
26803;DHT22;14378;51.796;5.808;2022-07-04T03:12:02;13.20;99.90
26803;DHT22;14378;51.796;5.808;2022-07-04T03:14:03;13.20;99.90
26803;DHT22;14378;51.796;5.808;2022-07-04T03:16:11;13.20;99.90
26803;DHT22;14378;51.796;5.808;2022-07-04T03:18:13;13.20;99.90
26803;DHT22;14378;51.796;5.808;2022-07-04T03:20:14;13.20;99.90
26803;DHT22;14378;51.796;5.808;2022-07-04T03:22:15;13.10;99.90
26803;DHT22;14378;51.796;5.808;2022-07-04T03:24:16;13.10;99.90
26803;DHT22;14378;51.796;5.808;2022-07-04T03:26:17;13.10;99.90
26803;DHT22;14378;51.796;5.808;2022-07-04T03:28:18;13.00;99.90
26803;DHT22;14378;51.796;5.808;2022-07-04T03:30:19;13.00;99.90
26803;DHT22;14378;51.796;5.808;2022-07-04T03:32:21;13.00;99.90
26803;DHT22;14378;51.796;5.808;2022-07-04T03:34:21;13.00;99.90
26803;DHT22;14378;51.796;5.808;2022-07-04T03:36:26;13.00;99.90
26803;DHT22;14378;51.796;5.808;2022-07-04T03:38:27;13.00;99.90
26803;DHT22;14378;51.796;5.808;2022-07-04T03:40:28;13.00;99.90
26803;DHT22;14378;51.796;5.808;2022-07-04T03:42:32;13.00;99.90
26803;DHT22;14378;51.796;5.808;2022-07-04T03:44:33;13.10;99.90
26803;DHT22;14378;51.796;5.808;2022-07-04T03:46:34;13.10;99.90
26803;DHT22;14378;51.796;5.808;2022-07-04T03:48:35;13.00;99.90
26803;DHT22;14378;51.796;5.808;2022-07-04T03:50:37;13.10;99.90
26803;DHT22;14378;51.796;5.808;2022-07-04T03:52:39;13.10;99.90
26803;DHT22;14378;51.796;5.808;2022-07-04T03:54:40;13.10;99.90
26803;DHT22;14378;51.796;5.808;2022-07-04T03:56:41;13.00;99.90
26803;DHT22;14378;51.796;5.808;2022-07-04T03:58:42;13.00;99.90
26803;DHT22;14378;51.796;5.808;2022-07-04T04:00:45;13.00;99.90
26803;DHT22;14378;51.796;5.808;2022-07-04T04:02:46;13.00;99.90
26803;DHT22;14378;51.796;5.808;2022-07-04T04:04:47;13.10;99.90
26803;DHT22;14378;51.796;5.808;2022-07-04T04:07:07;13.10;99.90
26803;DHT22;14378;51.796;5.808;2022-07-04T04:09:08;13.10;99.90
26803;DHT22;14378;51.796;5.808;2022-07-04T04:11:14;13.10;99.90
26803;DHT22;14378;51.796;5.808;2022-07-04T04:13:15;13.10;99.90
26803;DHT22;14378;51.796;5.808;2022-07-04T04:15:16;13.10;99.90
26803;DHT22;14378;51.796;5.808;2022-07-04T04:17:17;13.10;99.90
26803;DHT22;14378;51.796;5.808;2022-07-04T04:19:18;13.10;99.90
26803;DHT22;14378;51.796;5.808;2022-07-04T04:21:19;13.10;99.90
26803;DHT22;14378;51.796;5.808;2022-07-04T04:23:20;13.10;99.90
26803;DHT22;14378;51.796;5.808;2022-07-04T04:25:21;13.20;99.90
26803;DHT22;14378;51.796;5.808;2022-07-04T04:27:23;13.20;99.90
26803;DHT22;14378;51.796;5.808;2022-07-04T04:29:27;13.20;99.90
26803;DHT22;14378;51.796;5.808;2022-07-04T04:31:28;13.30;99.90
26803;DHT22;14378;51.796;5.808;2022-07-04T04:33:31;13.30;99.90
26803;DHT22;14378;51.796;5.808;2022-07-04T04:35:32;13.40;99.90
26803;DHT22;14378;51.796;5.808;2022-07-04T04:37:33;13.40;99.90
26803;DHT22;14378;51.796;5.808;2022-07-04T04:39:34;13.50;99.90
26803;DHT22;14378;51.796;5.808;2022-07-04T04:41:36;13.50;99.90
26803;DHT22;14378;51.796;5.808;2022-07-04T04:43:37;13.50;99.90
26803;DHT22;14378;51.796;5.808;2022-07-04T04:45:37;13.60;99.90
26803;DHT22;14378;51.796;5.808;2022-07-04T04:47:40;13.60;99.90
26803;DHT22;14378;51.796;5.808;2022-07-04T04:49:43;13.70;99.90
26803;DHT22;14378;51.796;5.808;2022-07-04T04:51:47;13.70;99.90
26803;DHT22;14378;51.796;5.808;2022-07-04T04:53:49;13.70;99.90
26803;DHT22;14378;51.796;5.808;2022-07-04T04:55:51;13.80;99.90
26803;DHT22;14378;51.796;5.808;2022-07-04T04:57:53;13.80;99.90
26803;DHT22;14378;51.796;5.808;2022-07-04T04:59:54;13.80;99.90
26803;DHT22;14378;51.796;5.808;2022-07-04T05:01:58;13.90;99.90
26803;DHT22;14378;51.796;5.808;2022-07-04T05:04:00;13.90;99.90
26803;DHT22;14378;51.796;5.808;2022-07-04T05:06:02;14.00;99.90
26803;DHT22;14378;51.796;5.808;2022-07-04T05:08:03;14.00;99.90
26803;DHT22;14378;51.796;5.808;2022-07-04T05:10:07;14.10;99.90
26803;DHT22;14378;51.796;5.808;2022-07-04T05:12:11;14.10;99.90
26803;DHT22;14378;51.796;5.808;2022-07-04T05:14:14;14.20;99.90
26803;DHT22;14378;51.796;5.808;2022-07-04T05:16:15;14.20;99.90
26803;DHT22;14378;51.796;5.808;2022-07-04T05:18:17;14.20;99.90
26803;DHT22;14378;51.796;5.808;2022-07-04T05:20:18;14.30;99.90
26803;DHT22;14378;51.796;5.808;2022-07-04T05:22:19;14.30;99.90
26803;DHT22;14378;51.796;5.808;2022-07-04T05:24:20;14.40;99.90
26803;DHT22;14378;51.796;5.808;2022-07-04T05:26:22;14.40;99.90
26803;DHT22;14378;51.796;5.808;2022-07-04T05:28:24;14.40;99.90
26803;DHT22;14378;51.796;5.808;2022-07-04T05:30:28;14.50;99.90
26803;DHT22;14378;51.796;5.808;2022-07-04T05:32:29;14.50;99.90
26803;DHT22;14378;51.796;5.808;2022-07-04T05:34:30;14.60;99.90
26803;DHT22;14378;51.796;5.808;2022-07-04T05:36:31;14.60;99.90
26803;DHT22;14378;51.796;5.808;2022-07-04T05:38:35;14.70;99.90
26803;DHT22;14378;51.796;5.808;2022-07-04T05:40:36;14.70;99.90
26803;DHT22;14378;51.796;5.808;2022-07-04T05:42:38;14.70;99.90
26803;DHT22;14378;51.796;5.808;2022-07-04T05:44:39;14.70;99.90
26803;DHT22;14378;51.796;5.808;2022-07-04T05:46:40;14.80;99.90
26803;DHT22;14378;51.796;5.808;2022-07-04T05:48:41;14.80;99.90
26803;DHT22;14378;51.796;5.808;2022-07-04T05:50:46;14.80;99.90
26803;DHT22;14378;51.796;5.808;2022-07-04T05:52:47;14.90;99.90
26803;DHT22;14378;51.796;5.808;2022-07-04T05:54:53;14.90;99.90
26803;DHT22;14378;51.796;5.808;2022-07-04T05:56:54;15.00;99.90
26803;DHT22;14378;51.796;5.808;2022-07-04T05:58:56;15.00;99.90
26803;DHT22;14378;51.796;5.808;2022-07-04T06:01:00;15.10;99.90
26803;DHT22;14378;51.796;5.808;2022-07-04T06:03:01;15.20;99.90
26803;DHT22;14378;51.796;5.808;2022-07-04T06:05:06;15.20;99.90
26803;DHT22;14378;51.796;5.808;2022-07-04T06:07:07;15.30;99.90
26803;DHT22;14378;51.796;5.808;2022-07-04T06:09:08;15.40;99.90
26803;DHT22;14378;51.796;5.808;2022-07-04T06:11:09;15.50;99.90
26803;DHT22;14378;51.796;5.808;2022-07-04T06:13:10;15.60;99.90
26803;DHT22;14378;51.796;5.808;2022-07-04T06:15:12;15.70;99.90
26803;DHT22;14378;51.796;5.808;2022-07-04T06:17:13;15.80;99.90
26803;DHT22;14378;51.796;5.808;2022-07-04T06:19:14;15.80;99.90
26803;DHT22;14378;51.796;5.808;2022-07-04T06:21:15;15.90;99.90
26803;DHT22;14378;51.796;5.808;2022-07-04T06:23:17;15.90;99.90
26803;DHT22;14378;51.796;5.808;2022-07-04T06:25:19;16.00;99.90
26803;DHT22;14378;51.796;5.808;2022-07-04T06:27:20;16.10;99.90
26803;DHT22;14378;51.796;5.808;2022-07-04T06:29:23;16.10;99.90
26803;DHT22;14378;51.796;5.808;2022-07-04T06:31:24;16.20;99.90
26803;DHT22;14378;51.796;5.808;2022-07-04T06:33:25;16.30;99.90
26803;DHT22;14378;51.796;5.808;2022-07-04T06:35:28;16.40;99.90
26803;DHT22;14378;51.796;5.808;2022-07-04T06:37:49;16.40;99.90
26803;DHT22;14378;51.796;5.808;2022-07-04T06:39:53;16.50;99.90
26803;DHT22;14378;51.796;5.808;2022-07-04T06:41:57;16.60;99.90
26803;DHT22;14378;51.796;5.808;2022-07-04T06:43:58;16.70;99.90
26803;DHT22;14378;51.796;5.808;2022-07-04T06:45:59;16.90;99.90
26803;DHT22;14378;51.796;5.808;2022-07-04T06:48:09;16.90;99.90
26803;DHT22;14378;51.796;5.808;2022-07-04T06:50:11;17.00;99.90
26803;DHT22;14378;51.796;5.808;2022-07-04T06:52:12;17.10;99.90
26803;DHT22;14378;51.796;5.808;2022-07-04T06:54:14;17.30;99.90
26803;DHT22;14378;51.796;5.808;2022-07-04T06:56:16;17.40;99.90
26803;DHT22;14378;51.796;5.808;2022-07-04T06:58:17;17.70;99.90
26803;DHT22;14378;51.796;5.808;2022-07-04T07:00:19;17.70;99.90
26803;DHT22;14378;51.796;5.808;2022-07-04T07:02:21;17.70;99.90
26803;DHT22;14378;51.796;5.808;2022-07-04T07:04:23;17.80;99.90
26803;DHT22;14378;51.796;5.808;2022-07-04T07:06:24;17.90;99.90
26803;DHT22;14378;51.796;5.808;2022-07-04T07:08:25;17.90;99.90
26803;DHT22;14378;51.796;5.808;2022-07-04T07:10:27;17.90;99.90
26803;DHT22;14378;51.796;5.808;2022-07-04T07:12:28;17.90;99.90
26803;DHT22;14378;51.796;5.808;2022-07-04T07:14:29;17.90;99.90
26803;DHT22;14378;51.796;5.808;2022-07-04T07:16:30;17.90;99.90
26803;DHT22;14378;51.796;5.808;2022-07-04T07:18:31;17.90;99.90
26803;DHT22;14378;51.796;5.808;2022-07-04T07:20:33;18.00;99.90
26803;DHT22;14378;51.796;5.808;2022-07-04T07:22:34;18.20;99.90
26803;DHT22;14378;51.796;5.808;2022-07-04T07:24:38;18.30;99.90
26803;DHT22;14378;51.796;5.808;2022-07-04T07:26:42;18.40;99.90
26803;DHT22;14378;51.796;5.808;2022-07-04T07:28:45;18.50;99.90
26803;DHT22;14378;51.796;5.808;2022-07-04T07:30:46;18.60;99.90
26803;DHT22;14378;51.796;5.808;2022-07-04T07:32:47;18.70;99.90
26803;DHT22;14378;51.796;5.808;2022-07-04T07:34:48;18.90;99.90
26803;DHT22;14378;51.796;5.808;2022-07-04T07:36:49;18.90;99.90
26803;DHT22;14378;51.796;5.808;2022-07-04T07:38:50;19.00;99.90
26803;DHT22;14378;51.796;5.808;2022-07-04T07:40:55;19.00;99.90
26803;DHT22;14378;51.796;5.808;2022-07-04T07:42:57;19.10;99.90
26803;DHT22;14378;51.796;5.808;2022-07-04T07:44:59;19.10;99.90
26803;DHT22;14378;51.796;5.808;2022-07-04T07:47:00;19.20;99.90
26803;DHT22;14378;51.796;5.808;2022-07-04T07:49:02;19.20;99.90
26803;DHT22;14378;51.796;5.808;2022-07-04T07:51:04;19.30;99.90
26803;DHT22;14378;51.796;5.808;2022-07-04T07:53:06;19.30;99.90
26803;DHT22;14378;51.796;5.808;2022-07-04T07:55:11;19.40;99.90
26803;DHT22;14378;51.796;5.808;2022-07-04T07:57:12;19.50;99.90
26803;DHT22;14378;51.796;5.808;2022-07-04T07:59:13;19.60;99.90
26803;DHT22;14378;51.796;5.808;2022-07-04T08:01:14;19.60;99.90
26803;DHT22;14378;51.796;5.808;2022-07-04T08:03:18;19.60;99.90
26803;DHT22;14378;51.796;5.808;2022-07-04T08:05:38;19.70;99.90
26803;DHT22;14378;51.796;5.808;2022-07-04T08:07:39;19.90;99.90
26803;DHT22;14378;51.796;5.808;2022-07-04T08:09:40;20.00;99.90
26803;DHT22;14378;51.796;5.808;2022-07-04T08:11:42;20.00;99.90
26803;DHT22;14378;51.796;5.808;2022-07-04T08:13:43;20.10;99.90
26803;DHT22;14378;51.796;5.808;2022-07-04T08:15:45;20.20;99.90
26803;DHT22;14378;51.796;5.808;2022-07-04T08:17:46;20.30;99.90
26803;DHT22;14378;51.796;5.808;2022-07-04T08:19:47;20.50;99.90
26803;DHT22;14378;51.796;5.808;2022-07-04T08:21:48;20.60;99.90
26803;DHT22;14378;51.796;5.808;2022-07-04T08:23:50;20.70;99.90
26803;DHT22;14378;51.796;5.808;2022-07-04T08:25:52;20.60;99.90
26803;DHT22;14378;51.796;5.808;2022-07-04T08:27:58;20.70;99.90
26803;DHT22;14378;51.796;5.808;2022-07-04T08:30:08;20.80;99.90
26803;DHT22;14378;51.796;5.808;2022-07-04T08:32:09;20.90;99.90
26803;DHT22;14378;51.796;5.808;2022-07-04T08:34:10;21.00;99.90
26803;DHT22;14378;51.796;5.808;2022-07-04T08:36:12;21.10;99.90
26803;DHT22;14378;51.796;5.808;2022-07-04T08:38:16;21.20;99.90
26803;DHT22;14378;51.796;5.808;2022-07-04T08:40:17;21.20;99.90
26803;DHT22;14378;51.796;5.808;2022-07-04T08:42:20;21.40;99.90
26803;DHT22;14378;51.796;5.808;2022-07-04T08:44:30;21.50;99.90
26803;DHT22;14378;51.796;5.808;2022-07-04T08:46:36;21.50;99.90
26803;DHT22;14378;51.796;5.808;2022-07-04T08:48:40;21.60;99.90
26803;DHT22;14378;51.796;5.808;2022-07-04T08:50:51;21.60;99.90
26803;DHT22;14378;51.796;5.808;2022-07-04T08:53:19;21.60;99.90
26803;DHT22;14378;51.796;5.808;2022-07-04T08:55:20;21.60;99.90
26803;DHT22;14378;51.796;5.808;2022-07-04T08:57:41;21.50;99.90
26803;DHT22;14378;51.796;5.808;2022-07-04T09:00:08;21.60;99.90
26803;DHT22;14378;51.796;5.808;2022-07-04T09:02:10;21.40;99.90
26803;DHT22;14378;51.796;5.808;2022-07-04T09:04:19;21.50;99.90
26803;DHT22;14378;51.796;5.808;2022-07-04T09:06:20;21.60;99.90
26803;DHT22;14378;51.796;5.808;2022-07-04T09:08:22;21.70;99.90
26803;DHT22;14378;51.796;5.808;2022-07-04T09:10:25;21.80;99.90
26803;DHT22;14378;51.796;5.808;2022-07-04T09:12:26;22.00;99.90
26803;DHT22;14378;51.796;5.808;2022-07-04T09:14:27;22.20;99.90
26803;DHT22;14378;51.796;5.808;2022-07-04T09:16:28;22.30;99.90
26803;DHT22;14378;51.796;5.808;2022-07-04T09:18:32;22.50;99.90
26803;DHT22;14378;51.796;5.808;2022-07-04T09:20:35;22.70;99.90
26803;DHT22;14378;51.796;5.808;2022-07-04T09:22:36;22.70;99.90
26803;DHT22;14378;51.796;5.808;2022-07-04T09:25:07;22.80;99.90
26803;DHT22;14378;51.796;5.808;2022-07-04T09:27:08;22.60;99.90
26803;DHT22;14378;51.796;5.808;2022-07-04T09:29:09;22.60;99.90
26803;DHT22;14378;51.796;5.808;2022-07-04T09:31:19;22.90;99.90
26803;DHT22;14378;51.796;5.808;2022-07-04T09:33:21;23.00;99.90
26803;DHT22;14378;51.796;5.808;2022-07-04T09:35:27;23.00;99.90
26803;DHT22;14378;51.796;5.808;2022-07-04T09:37:43;22.90;99.90
26803;DHT22;14378;51.796;5.808;2022-07-04T09:39:49;22.80;99.90
26803;DHT22;14378;51.796;5.808;2022-07-04T09:41:54;22.80;99.90
26803;DHT22;14378;51.796;5.808;2022-07-04T09:44:04;22.70;99.90
26803;DHT22;14378;51.796;5.808;2022-07-04T09:46:09;22.50;99.90
26803;DHT22;14378;51.796;5.808;2022-07-04T09:48:14;22.30;99.90
26803;DHT22;14378;51.796;5.808;2022-07-04T09:50:20;22.20;99.90
26803;DHT22;14378;51.796;5.808;2022-07-04T09:52:21;22.10;99.90
26803;DHT22;14378;51.796;5.808;2022-07-04T09:56:47;22.20;99.90
26803;DHT22;14378;51.796;5.808;2022-07-04T09:58:57;22.10;99.90
26803;DHT22;14378;51.796;5.808;2022-07-04T10:00:59;22.20;99.90
26803;DHT22;14378;51.796;5.808;2022-07-04T10:03:23;22.30;99.90
26803;DHT22;14378;51.796;5.808;2022-07-04T10:05:27;22.30;99.90
26803;DHT22;14378;51.796;5.808;2022-07-04T10:07:38;22.40;99.90
26803;DHT22;14378;51.796;5.808;2022-07-04T10:09:43;22.40;99.90
26803;DHT22;14378;51.796;5.808;2022-07-04T10:11:46;22.40;99.90
26803;DHT22;14378;51.796;5.808;2022-07-04T10:13:48;22.50;99.90
26803;DHT22;14378;51.796;5.808;2022-07-04T10:15:50;22.60;99.90
26803;DHT22;14378;51.796;5.808;2022-07-04T10:17:55;22.70;99.90
26803;DHT22;14378;51.796;5.808;2022-07-04T10:19:56;23.00;99.90
26803;DHT22;14378;51.796;5.808;2022-07-04T10:21:58;23.30;99.90
26803;DHT22;14378;51.796;5.808;2022-07-04T10:24:00;23.40;99.90
26803;DHT22;14378;51.796;5.808;2022-07-04T10:26:04;23.40;99.90
26803;DHT22;14378;51.796;5.808;2022-07-04T10:28:06;23.40;99.90
26803;DHT22;14378;51.796;5.808;2022-07-04T10:30:13;23.30;99.90
26803;DHT22;14378;51.796;5.808;2022-07-04T10:32:15;23.30;99.90
26803;DHT22;14378;51.796;5.808;2022-07-04T10:34:17;23.20;99.90
26803;DHT22;14378;51.796;5.808;2022-07-04T10:36:23;23.10;99.90
26803;DHT22;14378;51.796;5.808;2022-07-04T10:38:32;23.00;99.90
26803;DHT22;14378;51.796;5.808;2022-07-04T10:40:57;22.90;99.90
26803;DHT22;14378;51.796;5.808;2022-07-04T10:42:58;23.20;99.90
26803;DHT22;14378;51.796;5.808;2022-07-04T10:45:03;23.40;99.90
26803;DHT22;14378;51.796;5.808;2022-07-04T10:47:05;23.50;99.90
26803;DHT22;14378;51.796;5.808;2022-07-04T10:53:59;23.10;99.90
26803;DHT22;14378;51.796;5.808;2022-07-04T10:58:42;22.70;99.90
26803;DHT22;14378;51.796;5.808;2022-07-04T11:01:15;22.60;99.90
26803;DHT22;14378;51.796;5.808;2022-07-04T11:03:17;22.50;99.90
26803;DHT22;14378;51.796;5.808;2022-07-04T11:05:30;22.30;99.90
26803;DHT22;14378;51.796;5.808;2022-07-04T11:09:36;22.50;99.90
26803;DHT22;14378;51.796;5.808;2022-07-04T11:12:04;22.70;99.90
26803;DHT22;14378;51.796;5.808;2022-07-04T11:14:29;22.80;99.90
26803;DHT22;14378;51.796;5.808;2022-07-04T11:16:53;22.80;99.90
26803;DHT22;14378;51.796;5.808;2022-07-04T11:18:57;22.90;99.90
26803;DHT22;14378;51.796;5.808;2022-07-04T11:20:58;23.00;99.90
26803;DHT22;14378;51.796;5.808;2022-07-04T11:23:13;23.10;99.90
26803;DHT22;14378;51.796;5.808;2022-07-04T11:25:15;23.20;99.90
26803;DHT22;14378;51.796;5.808;2022-07-04T11:27:16;23.40;99.90
26803;DHT22;14378;51.796;5.808;2022-07-04T11:29:17;23.30;99.90
26803;DHT22;14378;51.796;5.808;2022-07-04T11:31:19;23.30;99.90
26803;DHT22;14378;51.796;5.808;2022-07-04T11:33:26;23.20;99.90
26803;DHT22;14378;51.796;5.808;2022-07-04T11:35:28;23.10;99.90
26803;DHT22;14378;51.796;5.808;2022-07-04T11:37:29;23.00;99.90
26803;DHT22;14378;51.796;5.808;2022-07-04T11:39:30;23.30;99.90
26803;DHT22;14378;51.796;5.808;2022-07-04T11:41:32;23.60;99.90
26803;DHT22;14378;51.796;5.808;2022-07-04T11:43:57;23.80;99.90
26803;DHT22;14378;51.796;5.808;2022-07-04T11:46:16;24.00;99.90
26803;DHT22;14378;51.796;5.808;2022-07-04T11:48:25;23.90;99.90
26803;DHT22;14378;51.796;5.808;2022-07-04T11:50:26;24.00;99.90
26803;DHT22;14378;51.796;5.808;2022-07-04T11:52:44;24.00;99.90
26803;DHT22;14378;51.796;5.808;2022-07-04T11:54:48;23.80;99.90
26803;DHT22;14378;51.796;5.808;2022-07-04T11:56:49;23.90;99.90
26803;DHT22;14378;51.796;5.808;2022-07-04T11:58:51;24.00;99.90
26803;DHT22;14378;51.796;5.808;2022-07-04T12:00:51;24.30;99.90
26803;DHT22;14378;51.796;5.808;2022-07-04T12:02:59;24.70;99.90
26803;DHT22;14378;51.796;5.808;2022-07-04T12:05:01;25.00;99.90
26803;DHT22;14378;51.796;5.808;2022-07-04T12:07:12;25.30;99.90
26803;DHT22;14378;51.796;5.808;2022-07-04T12:09:15;25.40;99.90
26803;DHT22;14378;51.796;5.808;2022-07-04T12:11:54;25.40;99.90
26803;DHT22;14378;51.796;5.808;2022-07-04T12:13:55;25.40;99.90
26803;DHT22;14378;51.796;5.808;2022-07-04T12:15:56;25.50;99.90
26803;DHT22;14378;51.796;5.808;2022-07-04T12:17:57;25.60;99.90
26803;DHT22;14378;51.796;5.808;2022-07-04T12:20:00;25.60;99.90
26803;DHT22;14378;51.796;5.808;2022-07-04T12:22:02;25.50;99.90
26803;DHT22;14378;51.796;5.808;2022-07-04T12:24:04;25.50;99.90
26803;DHT22;14378;51.796;5.808;2022-07-04T12:26:05;25.60;99.90
26803;DHT22;14378;51.796;5.808;2022-07-04T12:28:11;25.60;99.90
26803;DHT22;14378;51.796;5.808;2022-07-04T12:30:13;25.60;99.90
26803;DHT22;14378;51.796;5.808;2022-07-04T12:32:18;25.60;99.90
26803;DHT22;14378;51.796;5.808;2022-07-04T12:34:19;25.60;99.90
26803;DHT22;14378;51.796;5.808;2022-07-04T12:36:20;25.60;99.90
26803;DHT22;14378;51.796;5.808;2022-07-04T12:40:27;26.00;99.90
26803;DHT22;14378;51.796;5.808;2022-07-04T12:42:32;26.30;99.90
26803;DHT22;14378;51.796;5.808;2022-07-04T12:44:37;26.60;99.90
26803;DHT22;14378;51.796;5.808;2022-07-04T12:46:39;26.80;99.90
26803;DHT22;14378;51.796;5.808;2022-07-04T12:48:49;27.00;99.90
26803;DHT22;14378;51.796;5.808;2022-07-04T12:50:50;27.20;99.90
26803;DHT22;14378;51.796;5.808;2022-07-04T12:52:55;27.30;99.50
26803;DHT22;14378;51.796;5.808;2022-07-04T12:55:07;27.50;99.90
26803;DHT22;14378;51.796;5.808;2022-07-04T12:57:15;27.70;99.90
26803;DHT22;14378;51.796;5.808;2022-07-04T12:59:17;28.00;99.00
26803;DHT22;14378;51.796;5.808;2022-07-04T13:01:24;28.10;97.80
26803;DHT22;14378;51.796;5.808;2022-07-04T13:03:25;28.40;99.60
26803;DHT22;14378;51.796;5.808;2022-07-04T13:05:30;28.50;97.90
26803;DHT22;14378;51.796;5.808;2022-07-04T13:07:31;28.40;96.60
26803;DHT22;14378;51.796;5.808;2022-07-04T13:09:32;28.40;96.50
26803;DHT22;14378;51.796;5.808;2022-07-04T13:11:33;28.50;97.40
26803;DHT22;14378;51.796;5.808;2022-07-04T13:13:57;28.70;97.50
26803;DHT22;14378;51.796;5.808;2022-07-04T13:15:59;28.80;96.10